createdAt,value
2022-11-28T00:01:30.308Z,69.80
2022-11-28T00:03:58.114Z,69.90
2022-11-28T00:06:28.026Z,69.90
2022-11-28T00:08:56.366Z,69.90
2022-11-28T00:11:24.086Z,69.90
2022-11-28T00:13:51.883Z,69.90
2022-11-28T00:16:22.199Z,69.90
2022-11-28T00:18:50.265Z,69.90
2022-11-28T00:21:18.261Z,69.90
2022-11-28T00:23:48.668Z,69.90
2022-11-28T00:26:19.674Z,69.90
2022-11-28T00:28:47.660Z,69.90
2022-11-28T00:31:16.470Z,69.90
2022-11-28T00:33:44.301Z,69.90
2022-11-28T00:36:12.477Z,69.90
2022-11-28T00:38:40.441Z,69.90
2022-11-28T00:41:13.846Z,70.00
2022-11-28T00:43:41.900Z,69.90
2022-11-28T00:46:13.110Z,69.90
2022-11-28T00:48:41.591Z,69.90
2022-11-28T00:51:11.805Z,70.00
2022-11-28T00:53:42.338Z,70.00
2022-11-28T00:56:13.170Z,70.00
2022-11-28T00:58:41.983Z,70.00
2022-11-28T01:01:12.085Z,70.00
2022-11-28T01:03:41.648Z,70.00
2022-11-28T01:06:10.723Z,70.00
2022-11-28T01:08:38.928Z,70.00
2022-11-28T01:11:13.604Z,70.00
2022-11-28T01:13:41.811Z,70.10
2022-11-28T01:16:10.447Z,70.10
2022-11-28T01:18:38.544Z,70.10
2022-11-28T01:21:07.304Z,70.10
2022-11-28T01:23:35.937Z,70.10
2022-11-28T01:26:05.469Z,70.10
2022-11-28T01:28:34.953Z,70.10
2022-11-28T01:31:06.954Z,70.10
2022-11-28T01:33:34.806Z,70.10
2022-11-28T01:36:02.580Z,70.10
2022-11-28T01:38:30.724Z,70.10
2022-11-28T01:40:58.828Z,70.10
2022-11-28T01:43:26.853Z,70.20
2022-11-28T01:45:56.619Z,70.20
2022-11-28T01:48:27.341Z,70.20
2022-11-28T01:50:59.125Z,70.10
2022-11-28T01:53:29.449Z,70.20
2022-11-28T01:56:03.038Z,70.20
2022-11-28T01:58:33.575Z,70.10
2022-11-28T02:01:03.346Z,70.20
2022-11-28T02:03:35.168Z,70.20
2022-11-28T02:06:03.712Z,70.20
2022-11-28T02:08:33.937Z,70.20
2022-11-28T02:11:27.421Z,70.20
2022-11-28T02:14:05.966Z,70.20
2022-11-28T02:16:48.985Z,70.20
2022-11-28T02:19:50.435Z,70.20
2022-11-28T02:22:24.746Z,70.20
2022-11-28T02:25:23.464Z,70.20
2022-11-28T02:28:20.036Z,70.20
2022-11-28T02:30:59.365Z,70.20
2022-11-28T02:33:31.919Z,70.20
2022-11-28T02:36:08.631Z,70.20
2022-11-28T02:38:45.658Z,70.30
2022-11-28T02:41:21.588Z,70.30
2022-11-28T02:44:00.342Z,70.30
2022-11-28T02:46:36.712Z,70.30
2022-11-28T02:49:07.627Z,70.30
2022-11-28T02:51:39.332Z,70.30
2022-11-28T02:54:11.261Z,70.30
2022-11-28T02:56:38.996Z,70.30
2022-11-28T02:59:32.304Z,70.30
2022-11-28T03:02:01.703Z,70.40
2022-11-28T03:04:40.503Z,70.30
2022-11-28T03:07:21.579Z,70.30
2022-11-28T03:10:09.804Z,70.40
2022-11-28T03:12:48.934Z,70.30
2022-11-28T03:15:19.493Z,70.30
2022-11-28T03:17:54.315Z,70.30
2022-11-28T03:20:29.540Z,70.40
2022-11-28T03:23:11.633Z,70.40
2022-11-28T03:25:47.034Z,70.40
2022-11-28T03:28:21.086Z,70.40
2022-11-28T03:30:52.468Z,70.40
2022-11-28T03:33:22.161Z,70.40
2022-11-28T03:35:57.250Z,70.40
2022-11-28T03:38:29.792Z,70.40
2022-11-28T03:41:02.837Z,70.40
2022-11-28T03:43:37.286Z,70.40
2022-11-28T03:46:08.941Z,70.40
2022-11-28T03:48:41.322Z,70.40
2022-11-28T03:51:14.714Z,70.40
2022-11-28T03:53:51.696Z,70.40
2022-11-28T03:56:25.885Z,70.40
2022-11-28T03:58:57.460Z,70.40
2022-11-28T04:01:31.555Z,70.40
2022-11-28T04:04:12.067Z,70.40
2022-11-28T04:06:51.402Z,70.40
2022-11-28T04:09:23.509Z,70.40
2022-11-28T04:11:55.857Z,70.40
2022-11-28T04:14:29.365Z,70.40
2022-11-28T04:17:05.349Z,70.40
2022-11-28T04:19:36.903Z,70.40
2022-11-28T04:22:11.499Z,70.40
2022-11-28T04:24:45.404Z,70.50
2022-11-28T04:27:18.506Z,70.50
2022-11-28T04:29:49.458Z,70.40
2022-11-28T04:32:20.218Z,70.40
2022-11-28T04:34:53.195Z,70.50
2022-11-28T04:37:23.980Z,70.50
2022-11-28T04:39:53.272Z,70.50
2022-11-28T04:42:24.031Z,70.40
2022-11-28T04:44:56.578Z,70.50
2022-11-28T04:47:25.434Z,70.50
2022-11-28T04:49:54.251Z,70.50
2022-11-28T04:52:30.705Z,70.50
2022-11-28T04:55:03.728Z,70.50
2022-11-28T04:57:35.990Z,70.50
2022-11-28T05:00:08.927Z,70.50
2022-11-28T05:02:37.851Z,70.50
2022-11-28T05:05:10.341Z,70.50
2022-11-28T05:07:39.523Z,70.50
2022-11-28T05:10:08.735Z,70.40
2022-11-28T05:12:36.505Z,70.40
2022-11-28T05:15:04.631Z,70.40
2022-11-28T05:17:32.416Z,70.30
2022-11-28T05:20:00.288Z,70.30
2022-11-28T05:22:28.011Z,70.30
2022-11-28T05:24:57.035Z,70.20
2022-11-28T05:27:24.842Z,70.20
2022-11-28T05:29:53.741Z,70.20
2022-11-28T05:32:21.469Z,70.10
2022-11-28T05:34:49.198Z,70.10
2022-11-28T05:37:17.045Z,70.00
2022-11-28T05:39:45.031Z,69.90
2022-11-28T05:42:14.424Z,69.90
2022-11-28T05:44:42.140Z,69.90
2022-11-28T05:47:09.947Z,69.70
2022-11-28T05:49:37.698Z,69.70
2022-11-28T05:52:05.722Z,69.80
2022-11-28T05:54:33.477Z,70.20
2022-11-28T05:57:01.312Z,70.80
2022-11-28T05:59:30.357Z,71.00
2022-11-28T06:01:58.139Z,71.20
2022-11-28T06:04:26.153Z,71.20
2022-11-28T06:06:54.163Z,71.20
2022-11-28T06:09:25.675Z,71.10
2022-11-28T06:11:53.868Z,71.20
2022-11-28T06:14:21.596Z,71.20
2022-11-28T06:16:50.771Z,71.10
2022-11-28T06:19:19.088Z,71.10
2022-11-28T06:21:46.990Z,71.20
2022-11-28T06:24:14.711Z,71.30
2022-11-28T06:26:42.436Z,71.30
2022-11-28T06:29:10.158Z,71.30
2022-11-28T06:31:37.991Z,71.30
2022-11-28T06:34:07.116Z,71.50
2022-11-28T06:36:35.074Z,71.40
2022-11-28T06:39:02.809Z,71.60
2022-11-28T06:41:30.543Z,71.60
2022-11-28T06:43:58.406Z,71.60
2022-11-28T06:46:26.285Z,71.60
2022-11-28T06:48:54.839Z,71.60
2022-11-28T06:51:23.887Z,71.50
2022-11-28T06:53:51.687Z,71.60
2022-11-28T06:56:21.101Z,71.50
2022-11-28T06:58:54.035Z,71.50
2022-11-28T07:01:24.089Z,71.40
2022-11-28T07:03:54.249Z,71.30
2022-11-28T07:06:25.281Z,71.20
2022-11-28T07:08:53.527Z,71.20
2022-11-28T07:11:23.457Z,71.10
2022-11-28T07:13:52.164Z,71.00
2022-11-28T07:16:21.650Z,71.00
2022-11-28T07:18:49.656Z,70.90
2022-11-28T07:21:17.825Z,70.80
2022-11-28T07:23:48.058Z,70.70
2022-11-28T07:26:17.617Z,70.60
2022-11-28T07:28:46.245Z,70.60
2022-11-28T07:31:17.128Z,70.40
2022-11-28T07:33:46.789Z,70.50
2022-11-28T07:36:17.491Z,70.20
2022-11-28T07:38:49.374Z,70.30
2022-11-28T07:41:17.575Z,70.20
2022-11-28T07:43:47.819Z,70.10
2022-11-28T07:46:17.425Z,70.00
2022-11-28T07:48:45.495Z,70.00
2022-11-28T07:51:15.874Z,69.90
2022-11-28T07:53:43.844Z,69.90
2022-11-28T07:56:15.130Z,69.80
2022-11-28T07:58:44.986Z,70.60
2022-11-28T08:01:14.989Z,69.70
2022-11-28T08:03:44.533Z,69.70
2022-11-28T08:06:13.020Z,69.60
2022-11-28T08:08:41.086Z,69.50
2022-11-28T08:11:10.680Z,69.50
2022-11-28T08:13:40.686Z,69.40
2022-11-28T08:16:10.457Z,69.40
2022-11-28T08:18:38.587Z,69.40
2022-11-28T08:21:08.618Z,69.30
2022-11-28T08:23:37.219Z,69.30
2022-11-28T08:26:06.324Z,69.20
2022-11-28T08:28:34.148Z,69.20
2022-11-28T08:31:09.904Z,69.10
2022-11-28T08:33:37.788Z,69.10
2022-11-28T08:36:06.353Z,69.10
2022-11-28T08:38:34.131Z,69.10
2022-11-28T08:41:03.024Z,69.00
2022-11-28T08:43:30.839Z,69.00
2022-11-28T08:45:58.649Z,68.90
2022-11-28T08:48:27.863Z,68.90
2022-11-28T08:50:55.629Z,68.90
2022-11-28T08:53:23.973Z,68.90
2022-11-28T08:55:51.769Z,68.80
2022-11-28T08:58:19.521Z,68.90
2022-11-28T09:00:47.403Z,68.80
2022-11-28T09:03:17.252Z,68.90
2022-11-28T09:05:48.131Z,68.80
2022-11-28T09:08:17.323Z,68.80
2022-11-28T09:10:46.520Z,68.80
2022-11-28T09:13:16.040Z,68.70
2022-11-28T09:15:48.961Z,68.70
2022-11-28T09:18:19.034Z,68.70
2022-11-28T09:20:48.097Z,68.60
2022-11-28T09:23:15.815Z,68.60
2022-11-28T09:25:43.569Z,68.60
2022-11-28T09:28:11.275Z,68.60
2022-11-28T09:30:39.057Z,68.60
2022-11-28T09:33:07.028Z,68.50
2022-11-28T09:35:34.752Z,68.40
2022-11-28T09:38:03.805Z,68.40
2022-11-28T09:40:37.336Z,68.40
2022-11-28T09:43:12.909Z,68.40
2022-11-28T09:45:41.105Z,69.10
2022-11-28T09:48:23.651Z,68.20
2022-11-28T09:50:54.252Z,68.20
2022-11-28T09:53:29.532Z,68.20
2022-11-28T09:56:00.394Z,68.20
2022-11-28T09:58:32.922Z,68.10
2022-11-28T10:01:11.986Z,68.10
2022-11-28T10:03:47.140Z,68.10
2022-11-28T10:06:22.142Z,68.00
2022-11-28T10:09:20.390Z,68.00
2022-11-28T10:12:01.114Z,68.00
2022-11-28T10:14:59.151Z,67.90
2022-11-28T10:17:41.901Z,67.90
2022-11-28T10:20:15.070Z,67.90
2022-11-28T10:22:46.855Z,67.90
2022-11-28T10:25:19.402Z,68.60
2022-11-28T10:27:48.547Z,67.80
2022-11-28T10:30:21.650Z,67.80
2022-11-28T10:32:56.881Z,67.90
2022-11-28T10:35:30.962Z,67.80
2022-11-28T10:37:58.702Z,67.80
2022-11-28T10:40:36.727Z,67.80
2022-11-28T10:43:10.419Z,67.80
2022-11-28T10:45:47.189Z,67.80
2022-11-28T10:48:41.034Z,67.80
2022-11-28T10:51:21.995Z,67.90
2022-11-28T10:54:00.874Z,67.70
2022-11-28T10:56:39.409Z,67.80
2022-11-28T10:59:18.294Z,67.90
2022-11-28T11:01:50.163Z,67.80
2022-11-28T11:04:20.988Z,67.80
2022-11-28T11:07:09.076Z,67.80
2022-11-28T11:09:39.036Z,67.80
2022-11-28T11:12:15.551Z,67.80
2022-11-28T11:14:44.741Z,67.80
2022-11-28T11:17:29.017Z,67.80
2022-11-28T11:20:00.913Z,67.80
2022-11-28T11:22:31.921Z,67.80
2022-11-28T11:25:07.112Z,67.80
2022-11-28T11:27:37.615Z,67.80
2022-11-28T11:30:18.648Z,67.80
2022-11-28T11:32:51.601Z,67.80
2022-11-28T11:35:24.674Z,67.90
2022-11-28T11:37:52.811Z,67.90
2022-11-28T11:40:26.104Z,67.90
2022-11-28T11:42:57.093Z,67.90
2022-11-28T11:45:30.850Z,67.90
2022-11-28T11:47:59.297Z,67.90
2022-11-28T11:50:29.051Z,67.90
2022-11-28T11:53:05.763Z,67.90
2022-11-28T11:55:39.301Z,67.90
2022-11-28T11:58:13.633Z,67.90
2022-11-28T12:00:42.099Z,68.00
2022-11-28T12:03:19.811Z,67.90
2022-11-28T12:06:13.122Z,67.90
2022-11-28T12:08:44.515Z,68.00
2022-11-28T12:11:17.469Z,67.90
2022-11-28T12:13:46.686Z,67.90
2022-11-28T12:16:32.309Z,68.00
2022-11-28T12:19:10.269Z,67.90
2022-11-28T12:21:45.972Z,67.90
2022-11-28T12:24:17.417Z,68.00
2022-11-28T12:26:49.218Z,68.00
2022-11-28T12:29:33.141Z,67.90
2022-11-28T12:32:22.603Z,68.00
2022-11-28T12:35:05.017Z,68.00
2022-11-28T12:38:09.867Z,67.90
2022-11-28T12:40:37.104Z,67.90
2022-11-28T12:43:19.872Z,68.10
2022-11-28T12:45:55.927Z,68.10
2022-11-28T12:48:40.244Z,68.20
2022-11-28T12:51:15.688Z,68.30
2022-11-28T12:53:55.884Z,68.50
2022-11-28T12:56:35.216Z,68.70
2022-11-28T12:59:09.193Z,69.30
2022-11-28T13:01:55.073Z,69.60
2022-11-28T13:04:42.955Z,69.70
2022-11-28T13:07:16.338Z,69.70
2022-11-28T13:09:55.035Z,69.80
2022-11-28T13:12:29.074Z,70.00
2022-11-28T13:15:00.059Z,70.00
2022-11-28T13:17:42.029Z,70.10
2022-11-28T13:20:21.654Z,70.30
2022-11-28T13:22:58.940Z,70.20
2022-11-28T13:25:32.020Z,70.10
2022-11-28T13:28:06.456Z,69.90
2022-11-28T13:30:39.579Z,69.60
2022-11-28T13:33:23.185Z,69.50
2022-11-28T13:35:51.480Z,69.30
2022-11-28T13:38:36.174Z,69.20
2022-11-28T13:41:28.524Z,69.10
2022-11-28T13:44:03.443Z,69.00
2022-11-28T13:46:31.703Z,68.80
2022-11-28T13:49:15.531Z,68.50
2022-11-28T13:51:48.275Z,68.50
2022-11-28T13:54:46.199Z,68.20
2022-11-28T13:57:29.123Z,68.30
2022-11-28T14:00:06.934Z,68.30
2022-11-28T14:02:46.606Z,68.20
2022-11-28T14:05:29.863Z,68.20
2022-11-28T14:07:58.626Z,68.20
2022-11-28T14:10:50.105Z,68.10
2022-11-28T14:13:43.852Z,68.10
2022-11-28T14:16:21.189Z,68.20
2022-11-28T14:19:15.745Z,68.00
2022-11-28T14:21:59.157Z,68.10
2022-11-28T14:24:45.051Z,67.90
2022-11-28T14:27:20.804Z,67.90
2022-11-28T14:29:52.861Z,68.00
2022-11-28T14:32:37.397Z,67.90
2022-11-28T14:35:07.481Z,67.80
2022-11-28T14:37:51.971Z,67.80
2022-11-28T14:40:59.684Z,67.80
2022-11-28T14:43:29.460Z,67.80
2022-11-28T14:46:32.361Z,67.80
2022-11-28T14:49:22.877Z,67.80
2022-11-28T14:55:19.568Z,67.80
2022-11-28T14:57:59.355Z,67.80
2022-11-28T15:00:29.756Z,67.80
2022-11-28T15:03:14.623Z,67.70
2022-11-28T15:05:46.196Z,67.80
2022-11-28T15:08:42.026Z,67.70
2022-11-28T15:11:42.433Z,67.70
2022-11-28T15:14:20.612Z,67.70
2022-11-28T15:16:53.050Z,67.70
2022-11-28T15:19:27.522Z,67.60
2022-11-28T15:21:56.876Z,67.60
2022-11-28T15:24:27.567Z,67.60
2022-11-28T15:26:58.613Z,67.70
2022-11-28T15:29:28.742Z,67.70
2022-11-28T15:31:58.493Z,68.60
2022-11-28T15:34:29.728Z,67.60
2022-11-28T15:37:00.696Z,67.60
2022-11-28T15:39:34.661Z,67.70
2022-11-28T15:42:06.352Z,67.60
2022-11-28T15:44:34.429Z,67.60
2022-11-28T15:47:02.403Z,67.60
2022-11-28T15:49:31.671Z,67.50
2022-11-28T15:52:01.025Z,67.60
2022-11-28T15:54:35.591Z,67.50
2022-11-28T15:57:06.069Z,67.50
2022-11-28T15:59:34.435Z,67.50
2022-11-28T16:02:12.295Z,67.50
2022-11-28T16:04:40.469Z,67.50
2022-11-28T16:07:14.499Z,67.50
2022-11-28T16:09:54.140Z,67.50
2022-11-28T16:12:23.546Z,67.50
2022-11-28T16:14:53.209Z,67.50
2022-11-28T16:17:24.768Z,67.80
2022-11-28T16:19:53.707Z,68.10
2022-11-28T16:22:23.387Z,68.20
2022-11-28T16:24:55.217Z,68.40
2022-11-28T16:27:35.240Z,68.50
2022-11-28T16:30:03.906Z,68.60
2022-11-28T16:32:39.318Z,68.70
2022-11-28T16:35:12.194Z,68.80
2022-11-28T16:37:40.321Z,68.90
2022-11-28T16:40:16.938Z,69.00
2022-11-28T16:42:53.233Z,69.10
2022-11-28T16:45:24.919Z,69.10
2022-11-28T16:47:56.386Z,69.10
2022-11-28T16:50:25.677Z,69.20
2022-11-28T16:52:54.707Z,69.20
2022-11-28T16:55:44.203Z,69.20
2022-11-28T16:58:22.592Z,69.30
2022-11-28T17:01:00.686Z,69.80
2022-11-28T17:03:49.279Z,70.70
2022-11-28T17:06:21.135Z,71.50
2022-11-28T17:08:49.354Z,71.80
2022-11-28T17:11:19.725Z,72.00
2022-11-28T17:13:48.973Z,72.30
2022-11-28T17:16:19.163Z,72.30
2022-11-28T17:18:47.276Z,72.20
2022-11-28T17:21:16.141Z,73.10
2022-11-28T17:23:44.534Z,72.40
2022-11-28T17:26:12.578Z,72.10
2022-11-28T17:28:40.570Z,71.90
2022-11-28T17:31:12.086Z,71.70
2022-11-28T17:33:44.505Z,71.60
2022-11-28T17:36:13.196Z,71.30
2022-11-28T17:38:40.916Z,71.10
2022-11-28T17:41:13.434Z,70.90
2022-11-28T17:43:41.684Z,70.80
2022-11-28T17:46:11.224Z,70.70
2022-11-28T17:48:39.100Z,70.40
2022-11-28T17:51:07.091Z,70.30
2022-11-28T17:53:35.140Z,70.10
2022-11-28T17:56:03.059Z,70.00
2022-11-28T17:58:30.972Z,69.80
2022-11-28T18:01:00.927Z,69.80
2022-11-28T18:03:30.345Z,69.60
2022-11-28T18:05:58.250Z,69.50
2022-11-28T18:08:26.301Z,69.60
2022-11-28T18:11:04.192Z,69.40
2022-11-28T18:13:32.366Z,69.60
2022-11-28T18:16:00.697Z,69.60
2022-11-28T18:18:30.541Z,69.80
2022-11-28T18:20:58.404Z,69.80
2022-11-28T18:23:26.180Z,69.90
2022-11-28T18:25:53.934Z,70.00
2022-11-28T18:28:21.987Z,70.10
2022-11-28T18:30:49.866Z,70.30
2022-11-28T18:33:18.264Z,70.40
2022-11-28T18:35:47.496Z,70.40
2022-11-28T18:38:15.236Z,70.40
2022-11-28T18:40:42.968Z,70.50
2022-11-28T18:43:10.675Z,70.40
2022-11-28T18:45:38.570Z,70.50
2022-11-28T18:48:06.850Z,70.50
2022-11-28T18:50:35.858Z,70.50
2022-11-28T18:53:04.989Z,70.50
2022-11-28T18:55:32.953Z,70.50
2022-11-28T18:58:00.675Z,70.40
2022-11-28T19:00:28.723Z,70.40
2022-11-28T19:02:56.472Z,70.40
2022-11-28T19:05:24.195Z,70.50
2022-11-28T19:07:52.605Z,71.30
2022-11-28T19:10:22.356Z,70.50
2022-11-28T19:12:50.195Z,70.50
2022-11-28T19:15:18.426Z,70.50
2022-11-28T19:17:46.481Z,70.50
2022-11-28T19:20:14.719Z,70.50
2022-11-28T19:22:42.454Z,71.30
2022-11-28T19:25:10.703Z,70.50
2022-11-28T19:27:39.744Z,70.50
2022-11-28T19:30:08.758Z,70.50
2022-11-28T19:32:37.123Z,70.40
2022-11-28T19:35:05.077Z,70.40
2022-11-28T19:37:32.842Z,71.20
2022-11-28T19:40:02.727Z,70.40
2022-11-28T19:42:31.418Z,70.40
2022-11-28T19:45:00.515Z,70.40
2022-11-28T19:47:28.502Z,70.30
2022-11-28T19:49:56.270Z,70.30
2022-11-28T19:52:24.026Z,70.30
2022-11-28T19:54:52.471Z,70.20
2022-11-28T19:57:20.625Z,70.20
2022-11-28T19:59:48.408Z,70.20
2022-11-28T20:02:17.558Z,70.20
2022-11-28T20:04:45.390Z,70.20
2022-11-28T20:07:13.359Z,70.20
2022-11-28T20:09:41.906Z,70.10
2022-11-28T20:12:09.975Z,70.10
2022-11-28T20:14:37.967Z,70.10
2022-11-28T20:17:05.888Z,70.10
2022-11-28T20:19:35.995Z,70.10
2022-11-28T20:22:04.403Z,70.10
2022-11-28T20:24:33.729Z,70.30
2022-11-28T20:27:01.896Z,70.80
2022-11-28T20:29:30.094Z,71.30
2022-11-28T20:31:58.184Z,71.80
2022-11-28T20:34:27.779Z,72.00
2022-11-28T20:36:59.176Z,72.30
2022-11-28T20:39:27.033Z,72.40
2022-11-28T20:41:54.744Z,72.50
2022-11-28T20:44:22.578Z,72.60
2022-11-28T20:46:50.330Z,72.70
2022-11-28T20:49:18.401Z,72.70
2022-11-28T20:51:46.353Z,72.70
2022-11-28T20:54:15.687Z,72.70
2022-11-28T20:57:19.651Z,72.60
2022-11-28T20:59:32.869Z,72.50
2022-11-28T21:02:00.986Z,72.50
2022-11-28T21:04:28.816Z,72.50
2022-11-28T21:06:56.540Z,72.40
2022-11-28T21:09:25.757Z,72.40
2022-11-28T21:11:59.026Z,72.40
2022-11-28T21:14:28.096Z,72.40
2022-11-28T21:16:56.337Z,72.40
2022-11-28T21:19:24.254Z,72.40
2022-11-28T21:21:52.005Z,72.20
2022-11-28T21:24:19.755Z,72.20
2022-11-28T21:26:53.521Z,72.20
2022-11-28T21:29:22.511Z,72.20
2022-11-28T21:31:50.326Z,72.10
2022-11-28T21:34:19.112Z,72.10
2022-11-28T21:36:47.235Z,72.10
2022-11-28T21:39:16.602Z,72.10
2022-11-28T21:41:44.485Z,72.10
2022-11-28T21:44:13.570Z,72.10
2022-11-28T21:46:41.416Z,72.10
2022-11-28T21:49:09.269Z,72.10
2022-11-28T21:51:40.482Z,72.10
2022-11-28T21:54:08.732Z,72.10
2022-11-28T21:56:36.464Z,72.10
2022-11-28T21:59:05.732Z,72.10
2022-11-28T22:01:35.229Z,72.10
2022-11-28T22:04:04.322Z,72.00
2022-11-28T22:06:32.703Z,72.10
2022-11-28T22:09:08.288Z,72.00
2022-11-28T22:11:37.124Z,71.80
2022-11-28T22:14:05.198Z,71.80
2022-11-28T22:16:35.040Z,71.80
2022-11-28T22:19:03.915Z,71.80
2022-11-28T22:24:19.505Z,71.80
2022-11-28T22:26:47.821Z,71.80
2022-11-28T22:29:15.752Z,71.80
2022-11-28T22:31:44.957Z,71.80
2022-11-28T22:34:13.413Z,71.80
2022-11-28T22:36:41.547Z,71.80
2022-11-28T22:39:11.471Z,71.80
2022-11-28T22:41:39.284Z,71.80
2022-11-28T22:44:07.058Z,71.80
2022-11-28T22:46:34.819Z,71.80
2022-11-28T22:49:04.304Z,71.80
2022-11-28T22:51:32.404Z,71.80
2022-11-28T22:54:01.735Z,71.80
2022-11-28T22:56:32.114Z,71.80
2022-11-28T22:59:00.711Z,71.80
2022-11-28T23:01:31.170Z,71.80
2022-11-28T23:04:00.741Z,71.80
2022-11-28T23:06:31.533Z,71.80
2022-11-28T23:09:01.016Z,71.80
2022-11-28T23:11:32.548Z,71.80
2022-11-28T23:14:01.157Z,71.80
2022-11-28T23:16:31.093Z,71.80
2022-11-28T23:19:00.926Z,71.80
2022-11-28T23:21:32.723Z,71.80
2022-11-28T23:24:00.948Z,71.80
2022-11-28T23:26:31.761Z,71.80
2022-11-28T23:29:00.966Z,71.80
2022-11-28T23:31:31.364Z,71.80
2022-11-28T23:34:01.035Z,71.80
2022-11-28T23:36:35.827Z,71.70
2022-11-28T23:39:12.607Z,71.70
2022-11-28T23:41:40.337Z,71.70
2022-11-28T23:44:08.135Z,71.70
2022-11-28T23:46:36.371Z,71.70
2022-11-28T23:49:05.542Z,71.70
2022-11-28T23:51:34.822Z,71.60
2022-11-28T23:54:02.687Z,71.60
2022-11-28T23:56:32.365Z,71.70
2022-11-28T23:59:02.588Z,71.70
